Airfield :
LOGIN :

Register | Disclaimer

   EN    FR    IT 

 










Legend :    VFR   Marginal VFR   IFR   Intensive IFR   Very Intensive IFR
Visi :
Ceiling :
>= 8 km
>= 3000ft
5 to 8 km
1000 to 3000 ft
1500m to 5 km
500 to 1000 ft
800 to 1500m
200 to 500 ft
< 800m
< 200 ft
Symbols :   Thunderstorms  Fog  Heavy snow  Heavy precipitations  Wind > 20 kt
SIGMETs :     Misc.  Thunderstorms  Icing  Turbulence  Mountain Waves  Volcanic Ashes






- Airport Elevation : 628 ft
- IATA code : CMR


LFGA - Colmar-Houssen

CURRENT METAR :
  • 130930Z AUTO 01005KT 340V040 9999 BKN034/// BKN040/// BKN046/// ///TCU 19/14 Q1014

EXPIRED METARs :
  • 130900Z AUTO 18006KT 120V220 9999 BKN031/// BKN037/// BKN072/// ///CB 20/13 Q1014
  • 130830Z AUTO 08004KT 040V150 9999 FEW034 SCT092 20/14 Q1014
  • 130800Z AUTO VRB02KT CAVOK 20/13 Q1015
  • 130730Z AUTO VRB03KT 9999 FEW013 18/13 Q1015
  • 130700Z AUTO 11003KT 070V150 9999 FEW012 17/15 Q1015
  • 130630Z AUTO VRB02KT CAVOK 18/15 Q1015
  • 130600Z AUTO 00000KT 9999 FEW025 16/13 Q1015
  • 130530Z AUTO VRB01KT 9999 FEW026 BKN049 BKN088 17/13 Q1015
  • 130500Z AUTO 27003KT 9999 FEW034 SCT049 OVC090 15/13 Q1014

TAF N/A



MET'MAP, your aeronautical weather chart ! - Copyright ORBIFLY December 2007 - Disclaimer

ORBIFLY MET'MAP TEAM :

Programming & Development : Alexandra Zaïnal
Original concept : Baudouin d'Aumeries
Technical & hardware support : Manuel Goepfert
Assistance : Marc-Olivier Méhu




SOURCES & CREDITS :

   NOAA